createdAt,value
2023-03-22T00:00:50.853Z,6.45
2023-03-22T00:03:19.819Z,5.90
2023-03-22T00:05:52.866Z,6.30
2023-03-22T00:08:22.806Z,5.82
2023-03-22T00:10:54.551Z,6.70
2023-03-22T00:13:23.463Z,6.85
2023-03-22T00:15:53.438Z,6.13
2023-03-22T00:18:22.961Z,5.93
2023-03-22T00:20:54.549Z,6.03
2023-03-22T00:23:23.618Z,6.10
2023-03-22T00:25:52.591Z,5.72
2023-03-22T00:28:21.664Z,6.05
2023-03-22T00:30:55.390Z,5.22
2023-03-22T00:33:24.593Z,5.00
2023-03-22T00:35:58.729Z,5.30
2023-03-22T00:38:42.127Z,5.47
2023-03-22T00:41:13.673Z,5.72
2023-03-22T00:43:42.991Z,5.45
2023-03-22T00:46:12.616Z,6.43
2023-03-22T00:48:41.939Z,7.35
2023-03-22T00:51:12.094Z,6.32
2023-03-22T00:53:43.269Z,6.65
2023-03-22T00:56:14.033Z,6.00
2023-03-22T00:58:43.325Z,6.63
2023-03-22T01:01:14.208Z,6.47
2023-03-22T01:03:43.438Z,6.25
2023-03-22T01:06:13.702Z,6.47
2023-03-22T01:08:42.020Z,8.05
2023-03-22T01:11:11.783Z,8.35
2023-03-22T01:13:41.902Z,9.13
2023-03-22T01:16:11.821Z,7.30
2023-03-22T01:18:40.895Z,7.18
2023-03-22T01:21:09.855Z,8.10
2023-03-22T01:23:40.384Z,6.85
2023-03-22T01:26:08.876Z,6.57
2023-03-22T01:28:37.690Z,5.93
2023-03-22T01:31:06.795Z,7.00
2023-03-22T01:33:35.924Z,6.40
2023-03-22T01:36:04.681Z,6.15
2023-03-22T01:38:33.525Z,6.20
2023-03-22T01:41:03.524Z,6.15
2023-03-22T01:43:32.516Z,6.03
2023-03-22T01:46:01.361Z,5.75
2023-03-22T01:48:34.249Z,6.43
2023-03-22T01:51:07.873Z,6.18
2023-03-22T01:53:39.919Z,5.53
2023-03-22T01:56:12.065Z,6.10
2023-03-22T01:58:41.744Z,5.55
2023-03-22T02:01:11.313Z,5.70
2023-03-22T02:03:46.520Z,5.93
2023-03-22T02:06:15.096Z,5.57
2023-03-22T02:08:43.486Z,6.63
2023-03-22T02:11:17.067Z,5.55
2023-03-22T02:14:03.773Z,6.25
2023-03-22T02:16:42.475Z,6.38
2023-03-22T02:19:32.617Z,5.40
2023-03-22T02:22:58.109Z,5.65
2023-03-22T02:25:53.681Z,5.82
2023-03-22T02:28:40.850Z,5.40
2023-03-22T02:31:48.012Z,5.72
2023-03-22T02:34:59.330Z,5.93
2023-03-22T02:38:03.615Z,6.05
2023-03-22T02:40:37.040Z,5.78
2023-03-22T02:43:16.693Z,6.10
2023-03-22T02:45:51.733Z,5.72
2023-03-22T02:48:28.973Z,5.47
2023-03-22T02:51:01.978Z,6.35
2023-03-22T02:53:35.067Z,5.45
2023-03-22T02:56:10.885Z,5.80
2023-03-22T02:58:46.074Z,6.03
2023-03-22T03:01:20.099Z,5.50
2023-03-22T03:03:51.530Z,5.97
2023-03-22T03:06:25.894Z,6.03
2023-03-22T03:08:58.011Z,5.47
2023-03-22T03:11:27.906Z,5.80
2023-03-22T03:13:56.864Z,5.75
2023-03-22T03:16:28.543Z,6.28
2023-03-22T03:19:03.023Z,6.95
2023-03-22T03:21:37.553Z,7.13
2023-03-22T03:24:22.330Z,7.50
2023-03-22T03:26:59.140Z,7.03
2023-03-22T03:32:06.549Z,7.18
2023-03-22T03:34:42.201Z,8.25
2023-03-22T03:37:15.156Z,8.35
2023-03-22T03:39:49.687Z,8.05
2023-03-22T03:42:20.866Z,8.20
2023-03-22T03:44:50.110Z,8.45
2023-03-22T03:47:19.807Z,9.38
2023-03-22T03:49:48.738Z,9.38
2023-03-22T03:52:17.630Z,8.65
2023-03-22T03:54:46.363Z,8.18
2023-03-22T03:57:16.715Z,8.73
2023-03-22T03:59:47.651Z,8.98
2023-03-22T04:02:16.741Z,8.77
2023-03-22T04:04:45.551Z,8.52
2023-03-22T04:07:13.850Z,8.95
2023-03-22T04:09:42.649Z,8.00
2023-03-22T04:12:11.613Z,9.57
2023-03-22T04:14:40.113Z,9.13
2023-03-22T04:17:10.801Z,9.43
2023-03-22T04:19:39.663Z,9.15
2023-03-22T04:22:14.891Z,9.80
2023-03-22T04:24:43.358Z,8.70
2023-03-22T04:27:12.029Z,9.85
2023-03-22T04:29:40.647Z,9.20
2023-03-22T04:32:11.236Z,9.10
2023-03-22T04:34:40.246Z,9.68
2023-03-22T04:37:08.759Z,9.68
2023-03-22T04:39:37.635Z,10.60
2023-03-22T04:42:06.226Z,10.82
2023-03-22T04:44:34.623Z,10.20
2023-03-22T04:47:03.471Z,10.60
2023-03-22T04:49:33.654Z,9.68
2023-03-22T04:52:02.984Z,9.82
2023-03-22T04:54:31.802Z,9.23
2023-03-22T04:57:01.071Z,8.98
2023-03-22T04:59:29.864Z,9.15
2023-03-22T05:01:58.707Z,8.07
2023-03-22T05:04:27.479Z,11.73
2023-03-22T05:06:57.749Z,11.00
2023-03-22T05:09:26.573Z,12.10
2023-03-22T05:11:55.020Z,11.00
2023-03-22T05:14:23.826Z,11.27
2023-03-22T05:16:52.249Z,10.98
2023-03-22T05:19:22.443Z,13.77
2023-03-22T05:21:58.039Z,11.95
2023-03-22T05:24:28.507Z,11.68
2023-03-22T05:27:01.809Z,11.65
2023-03-22T05:29:36.870Z,11.27
2023-03-22T05:32:05.844Z,12.13
2023-03-22T05:34:36.900Z,12.32
2023-03-22T05:37:05.492Z,11.75
2023-03-22T05:39:35.857Z,10.73
2023-03-22T05:42:04.661Z,10.45
2023-03-22T05:44:35.455Z,10.82
2023-03-22T05:47:07.120Z,12.48
2023-03-22T05:49:35.861Z,11.73
2023-03-22T05:52:07.227Z,12.93
2023-03-22T05:54:37.243Z,11.48
2023-03-22T05:57:05.774Z,12.45
2023-03-22T05:59:34.659Z,11.88
2023-03-22T06:02:02.866Z,11.73
2023-03-22T06:04:31.413Z,10.55
2023-03-22T06:07:00.006Z,11.80
2023-03-22T06:09:28.132Z,15.98
2023-03-22T06:11:57.654Z,14.40
2023-03-22T06:14:26.482Z,14.38
2023-03-22T06:16:54.941Z,12.60
2023-03-22T06:19:23.997Z,11.48
2023-03-22T06:21:52.992Z,12.20
2023-03-22T06:24:21.320Z,11.50
2023-03-22T06:26:50.040Z,10.95
2023-03-22T06:29:19.892Z,10.70
2023-03-22T06:31:48.317Z,10.60
2023-03-22T06:34:16.747Z,9.57
2023-03-22T06:36:45.479Z,8.75
2023-03-22T06:39:14.046Z,7.68
2023-03-22T06:41:42.665Z,7.13
2023-03-22T06:44:11.248Z,8.00
2023-03-22T06:46:40.915Z,7.70
2023-03-22T06:49:09.056Z,8.18
2023-03-22T06:51:37.427Z,9.02
2023-03-22T06:54:06.157Z,7.80
2023-03-22T06:56:34.791Z,8.15
2023-03-22T06:59:03.423Z,8.27
2023-03-22T07:01:31.493Z,8.55
2023-03-22T07:04:01.287Z,8.80
2023-03-22T07:06:30.733Z,8.48
2023-03-22T07:08:58.812Z,8.63
2023-03-22T07:11:27.114Z,8.10
2023-03-22T07:13:56.734Z,7.93
2023-03-22T07:16:25.459Z,8.82
2023-03-22T07:18:54.255Z,8.30
2023-03-22T07:21:24.506Z,7.57
2023-03-22T07:23:52.801Z,7.35
2023-03-22T07:26:21.708Z,6.97
2023-03-22T07:28:50.411Z,7.43
2023-03-22T07:31:19.270Z,7.00
2023-03-22T07:33:48.325Z,6.80
2023-03-22T07:36:16.677Z,6.65
2023-03-22T07:38:46.616Z,6.80
2023-03-22T07:41:15.209Z,6.95
2023-03-22T07:43:54.045Z,6.43
2023-03-22T07:46:25.266Z,6.57
2023-03-22T07:48:53.833Z,6.47
2023-03-22T07:51:22.947Z,5.82
2023-03-22T07:53:53.606Z,5.80
2023-03-22T07:56:21.721Z,5.72
2023-03-22T07:58:50.059Z,5.75
2023-03-22T08:01:18.447Z,6.03
2023-03-22T08:03:47.042Z,6.13
2023-03-22T08:06:16.454Z,6.40
2023-03-22T08:08:44.722Z,6.43
2023-03-22T08:11:14.760Z,6.53
2023-03-22T08:13:43.409Z,5.55
2023-03-22T08:16:12.291Z,8.68
2023-03-22T08:18:40.710Z,7.75
2023-03-22T08:21:09.278Z,7.55
2023-03-22T08:23:42.028Z,6.25
2023-03-22T08:26:10.722Z,6.25
2023-03-22T08:28:40.473Z,5.38
2023-03-22T08:31:13.922Z,5.80
2023-03-22T08:33:43.522Z,5.45
2023-03-22T08:36:13.456Z,5.22
2023-03-22T08:38:46.087Z,4.97
2023-03-22T08:41:16.044Z,4.75
2023-03-22T08:43:46.520Z,5.03
2023-03-22T08:46:14.660Z,5.13
2023-03-22T08:48:50.492Z,5.18
2023-03-22T08:51:19.406Z,4.88
2023-03-22T08:53:48.242Z,4.90
2023-03-22T08:56:19.613Z,4.95
2023-03-22T08:58:53.032Z,5.03
2023-03-22T09:01:21.540Z,5.05
2023-03-22T09:03:50.489Z,5.13
2023-03-22T09:06:18.849Z,5.38
2023-03-22T09:08:47.404Z,5.57
2023-03-22T09:11:17.893Z,5.47
2023-03-22T09:13:47.075Z,4.97
2023-03-22T09:16:17.386Z,4.78
2023-03-22T09:18:46.794Z,4.82
2023-03-22T09:21:16.374Z,4.53
2023-03-22T09:23:47.985Z,5.28
2023-03-22T09:26:16.774Z,4.60
2023-03-22T09:28:46.941Z,4.50
2023-03-22T09:31:20.224Z,4.53
2023-03-22T09:33:49.270Z,4.93
2023-03-22T09:36:18.693Z,4.97
2023-03-22T09:38:47.618Z,4.63
2023-03-22T09:41:22.404Z,4.60
2023-03-22T09:43:55.118Z,4.60
2023-03-22T09:46:31.826Z,4.50
2023-03-22T09:49:03.157Z,4.43
2023-03-22T09:51:41.201Z,4.78
2023-03-22T09:54:19.921Z,4.70
2023-03-22T09:56:52.821Z,4.45
2023-03-22T09:59:27.271Z,4.50
2023-03-22T10:02:01.855Z,4.32
2023-03-22T10:04:47.378Z,4.68
2023-03-22T10:07:27.259Z,4.33
2023-03-22T10:10:05.906Z,4.43
2023-03-22T10:12:42.386Z,4.47
2023-03-22T10:15:15.867Z,4.38
2023-03-22T10:17:49.702Z,4.70
2023-03-22T10:20:33.982Z,5.00
2023-03-22T10:23:05.669Z,5.07
2023-03-22T10:25:38.248Z,4.80
2023-03-22T10:28:17.527Z,4.72
2023-03-22T10:30:53.552Z,4.30
2023-03-22T10:33:32.567Z,4.22
2023-03-22T10:36:06.025Z,4.25
2023-03-22T10:38:38.780Z,4.55
2023-03-22T10:41:10.327Z,4.50
2023-03-22T10:43:40.730Z,4.38
2023-03-22T10:46:17.883Z,4.85
2023-03-22T10:48:51.408Z,4.20
2023-03-22T10:51:27.568Z,4.40
2023-03-22T10:53:58.253Z,4.38
2023-03-22T10:56:27.311Z,4.28
2023-03-22T10:58:57.274Z,4.10
2023-03-22T11:01:31.632Z,4.38
2023-03-22T11:04:09.671Z,4.57
2023-03-22T11:06:44.344Z,4.85
2023-03-22T11:09:16.833Z,4.65
2023-03-22T11:11:51.652Z,4.10
2023-03-22T11:14:26.428Z,3.85
2023-03-22T11:16:59.786Z,4.38
2023-03-22T11:19:34.961Z,4.18
2023-03-22T11:22:05.992Z,4.30
2023-03-22T11:24:36.327Z,4.40
2023-03-22T11:27:06.984Z,4.32
2023-03-22T11:29:42.326Z,4.20
2023-03-22T11:32:24.387Z,4.13
2023-03-22T11:35:03.434Z,4.20
2023-03-22T11:37:32.406Z,4.20
2023-03-22T11:40:05.121Z,4.10
2023-03-22T11:42:35.843Z,4.30
2023-03-22T11:45:04.909Z,5.20
2023-03-22T11:47:42.245Z,4.47
2023-03-22T11:50:31.116Z,4.07
2023-03-22T11:53:04.239Z,4.30
2023-03-22T11:55:33.149Z,4.50
2023-03-22T11:58:07.720Z,4.28
2023-03-22T12:00:40.068Z,4.28
2023-03-22T12:03:14.884Z,4.30
2023-03-22T12:05:50.115Z,4.47
2023-03-22T12:08:27.168Z,4.50
2023-03-22T12:11:00.297Z,4.40
2023-03-22T12:13:40.924Z,4.25
2023-03-22T12:16:14.539Z,3.90
2023-03-22T12:18:49.149Z,4.15
2023-03-22T12:21:19.765Z,4.97
2023-03-22T12:23:48.171Z,4.50
2023-03-22T12:26:20.756Z,4.55
2023-03-22T12:28:55.662Z,5.30
2023-03-22T12:31:29.029Z,4.75
2023-03-22T12:34:00.473Z,4.97
2023-03-22T12:36:37.005Z,5.25
2023-03-22T12:39:10.583Z,4.72
2023-03-22T12:41:41.393Z,5.43
2023-03-22T12:44:28.227Z,5.10
2023-03-22T12:46:59.896Z,5.00
2023-03-22T12:49:35.934Z,5.05
2023-03-22T12:54:42.212Z,4.97
2023-03-22T12:57:12.038Z,4.70
2023-03-22T12:59:45.831Z,5.65
2023-03-22T13:02:18.175Z,4.85
2023-03-22T13:04:55.012Z,4.97
2023-03-22T13:07:38.408Z,5.07
2023-03-22T13:10:56.208Z,5.45
2023-03-22T13:13:41.817Z,5.40
2023-03-22T13:16:22.911Z,4.80
2023-03-22T13:19:02.041Z,4.90
2023-03-22T13:21:33.614Z,5.18
2023-03-22T13:24:22.438Z,4.75
2023-03-22T13:26:53.192Z,5.05
2023-03-22T13:29:24.786Z,5.13
2023-03-22T13:31:59.033Z,5.63
2023-03-22T13:34:37.621Z,5.13
2023-03-22T13:37:12.074Z,5.10
2023-03-22T13:39:46.558Z,4.78
2023-03-22T13:42:21.777Z,5.38
2023-03-22T13:44:58.690Z,5.28
2023-03-22T13:47:37.157Z,5.10
2023-03-22T13:50:14.029Z,4.75
2023-03-22T13:52:47.566Z,5.03
2023-03-22T13:55:41.349Z,4.47
2023-03-22T13:58:33.084Z,4.20
2023-03-22T14:01:02.863Z,4.47
2023-03-22T14:03:34.943Z,4.40
2023-03-22T14:06:20.775Z,4.43
2023-03-22T14:08:53.406Z,4.32
2023-03-22T14:11:28.371Z,4.55
2023-03-22T14:14:02.220Z,4.60
2023-03-22T14:16:41.738Z,4.28
2023-03-22T14:19:18.896Z,4.10
